createdAt,value
2023-02-14T00:01:51.488Z,99414.56
2023-02-14T00:04:20.173Z,99410.28
2023-02-14T00:06:48.888Z,99409.38
2023-02-14T00:09:19.181Z,99406.09
2023-02-14T00:11:47.715Z,99405.97
2023-02-14T00:14:34.878Z,99413.69
2023-02-14T00:17:04.851Z,99413.72
2023-02-14T00:19:34.711Z,99410.28
2023-02-14T00:22:03.702Z,99408.59
2023-02-14T00:24:33.138Z,99415.34
2023-02-14T00:27:01.730Z,99412.81
2023-02-14T00:29:32.159Z,99412.03
2023-02-14T00:32:00.865Z,99418.84
2023-02-14T00:34:30.666Z,99416.31
2023-02-14T00:37:00.678Z,99405.31
2023-02-14T00:39:29.153Z,99405.22
2023-02-14T00:41:57.638Z,99398.47
2023-02-14T00:44:26.250Z,99392.50
2023-02-14T00:46:54.707Z,99396.63
2023-02-14T00:49:24.880Z,99397.41
2023-02-14T00:51:54.670Z,99403.28
2023-02-14T00:54:24.362Z,99409.22
2023-02-14T00:56:52.818Z,99407.56
2023-02-14T00:59:21.249Z,99401.66
2023-02-14T01:01:49.777Z,99400.88
2023-02-14T01:04:18.281Z,99405.91
2023-02-14T01:06:47.529Z,99401.63
2023-02-14T01:09:17.421Z,99409.28
2023-02-14T01:11:45.886Z,99404.16
2023-02-14T01:14:16.680Z,99400.78
2023-02-14T01:16:45.180Z,99397.44
2023-02-14T01:19:14.464Z,99394.97
2023-02-14T01:21:45.414Z,99409.31
2023-02-14T01:24:14.169Z,99409.31
2023-02-14T01:26:46.106Z,99410.97
2023-02-14T01:29:14.547Z,99403.31
2023-02-14T01:31:43.063Z,99400.75
2023-02-14T01:34:11.651Z,99411.75
2023-02-14T01:36:40.912Z,99403.31
2023-02-14T01:39:12.470Z,99400.03
2023-02-14T01:41:42.542Z,99399.16
2023-02-14T01:44:44.279Z,99406.78
2023-02-14T01:47:15.044Z,99394.94
2023-02-14T01:49:48.411Z,99392.31
2023-02-14T01:52:20.791Z,99396.53
2023-02-14T01:54:53.281Z,99395.69
2023-02-14T01:57:23.879Z,99394.88
2023-02-14T01:59:56.488Z,99391.34
2023-02-14T02:02:26.418Z,99392.16
2023-02-14T02:04:57.492Z,99392.31
2023-02-14T02:07:30.391Z,99393.13
2023-02-14T02:10:02.640Z,99388.84
2023-02-14T02:12:31.621Z,99390.50
2023-02-14T02:15:01.021Z,99391.38
2023-02-14T02:17:39.334Z,99396.47
2023-02-14T02:20:36.950Z,99388.91
2023-02-14T02:23:53.007Z,99382.06
2023-02-14T02:26:54.700Z,99380.34
2023-02-14T02:30:10.914Z,99378.63
2023-02-14T02:33:15.441Z,99381.16
2023-02-14T02:35:57.340Z,99371.94
2023-02-14T02:38:39.918Z,99377.97
2023-02-14T02:41:23.874Z,99375.28
2023-02-14T02:43:59.450Z,99366.09
2023-02-14T02:46:50.806Z,99373.63
2023-02-14T02:50:00.315Z,99375.25
2023-02-14T02:52:58.295Z,99376.16
2023-02-14T02:55:54.860Z,99374.38
2023-02-14T02:58:27.298Z,99372.75
2023-02-14T03:00:56.485Z,99373.53
2023-02-14T03:03:45.433Z,99372.66
2023-02-14T03:06:13.904Z,99370.94
2023-02-14T03:08:43.698Z,99379.44
2023-02-14T03:11:13.940Z,99378.72
2023-02-14T03:14:02.574Z,99385.34
2023-02-14T03:16:40.512Z,99380.31
2023-02-14T03:19:25.011Z,99364.16
2023-02-14T03:21:56.705Z,99371.84
2023-02-14T03:24:34.570Z,99370.91
2023-02-14T03:27:11.639Z,99371.78
2023-02-14T03:29:50.568Z,99379.34
2023-02-14T03:32:28.474Z,99368.38
2023-02-14T03:35:05.273Z,99366.69
2023-02-14T03:37:37.841Z,99370.81
2023-02-14T03:40:12.098Z,99376.81
2023-02-14T03:42:44.717Z,99373.31
2023-02-14T03:45:18.303Z,99383.47
2023-02-14T03:47:48.421Z,99382.56
2023-02-14T03:50:20.774Z,99383.38
2023-02-14T03:52:52.882Z,99389.19
2023-02-14T03:55:27.886Z,99385.69
2023-02-14T03:58:03.023Z,99384.00
2023-02-14T04:00:34.035Z,99384.03
2023-02-14T04:03:07.205Z,99379.97
2023-02-14T04:05:35.826Z,99380.72
2023-02-14T04:08:04.339Z,99385.88
2023-02-14T04:10:34.322Z,99383.38
2023-02-14T04:13:03.103Z,99386.81
2023-02-14T04:15:31.708Z,99383.38
2023-02-14T04:18:17.606Z,99369.91
2023-02-14T04:20:46.117Z,99370.78
2023-02-14T04:23:14.560Z,99371.66
2023-02-14T04:25:45.629Z,99372.53
2023-02-14T04:28:14.588Z,99369.13
2023-02-14T04:30:43.267Z,99359.09
2023-02-14T04:33:11.825Z,99367.41
2023-02-14T04:35:40.338Z,99360.63
2023-02-14T04:38:09.558Z,99353.84
2023-02-14T04:40:38.038Z,99349.69
2023-02-14T04:43:08.467Z,99353.91
2023-02-14T04:45:37.141Z,99355.59
2023-02-14T04:48:05.559Z,99352.28
2023-02-14T04:50:33.973Z,99355.59
2023-02-14T04:53:02.400Z,99356.47
2023-02-14T04:55:31.216Z,99358.09
2023-02-14T04:57:59.702Z,99353.13
2023-02-14T05:00:29.506Z,99348.84
2023-02-14T05:02:58.005Z,99357.34
2023-02-14T05:05:26.527Z,99350.53
2023-02-14T05:07:54.987Z,99360.66
2023-02-14T05:10:23.518Z,99347.97
2023-02-14T05:12:51.996Z,99352.19
2023-02-14T05:15:20.471Z,99356.38
2023-02-14T05:17:50.248Z,99354.78
2023-02-14T05:20:18.978Z,99348.94
2023-02-14T05:22:47.415Z,99357.25
2023-02-14T05:25:15.833Z,99363.25
2023-02-14T05:27:44.314Z,99353.91
2023-02-14T05:30:14.453Z,99353.94
2023-02-14T05:32:42.954Z,99345.44
2023-02-14T05:35:12.806Z,99344.59
2023-02-14T05:37:41.248Z,99346.28
2023-02-14T05:40:13.374Z,99348.81
2023-02-14T05:42:41.849Z,99347.09
2023-02-14T05:45:11.344Z,99342.91
2023-02-14T05:47:39.832Z,99344.56
2023-02-14T05:50:09.236Z,99347.06
2023-02-14T05:52:39.613Z,99336.09
2023-02-14T05:55:08.517Z,99338.63
2023-02-14T05:57:37.080Z,99346.16
2023-02-14T06:00:06.813Z,99349.56
2023-02-14T06:02:41.760Z,99345.34
2023-02-14T06:05:10.256Z,99343.59
2023-02-14T06:07:40.070Z,99348.75
2023-02-14T06:10:10.367Z,99343.66
2023-02-14T06:12:38.850Z,99353.75
2023-02-14T06:15:07.943Z,99352.06
2023-02-14T06:17:36.367Z,99362.22
2023-02-14T06:20:05.293Z,99358.88
2023-02-14T06:22:33.923Z,99366.53
2023-02-14T06:25:04.026Z,99356.34
2023-02-14T06:27:33.475Z,99369.81
2023-02-14T06:30:02.438Z,99373.22
2023-02-14T06:32:31.924Z,99369.84
2023-02-14T06:35:00.410Z,99369.88
2023-02-14T06:37:28.855Z,99375.75
2023-02-14T06:39:57.323Z,99381.59
2023-02-14T06:42:27.200Z,99378.31
2023-02-14T06:44:55.705Z,99380.81
2023-02-14T06:47:24.247Z,99376.72
2023-02-14T06:49:52.675Z,99384.31
2023-02-14T06:52:21.157Z,99382.56
2023-02-14T06:54:49.591Z,99373.31
2023-02-14T06:57:18.059Z,99387.59
2023-02-14T06:59:47.930Z,99384.19
2023-02-14T07:02:16.515Z,99384.16
2023-02-14T07:04:44.987Z,99379.25
2023-02-14T07:07:13.481Z,99377.53
2023-02-14T07:09:41.970Z,99374.28
2023-02-14T07:12:10.732Z,99381.97
2023-02-14T07:14:39.258Z,99378.56
2023-02-14T07:17:09.071Z,99377.78
2023-02-14T07:19:37.534Z,99379.47
2023-02-14T07:22:06.042Z,99374.41
2023-02-14T07:24:34.507Z,99372.75
2023-02-14T07:27:02.966Z,99369.41
2023-02-14T07:29:31.380Z,99368.72
2023-02-14T07:31:59.900Z,99372.03
2023-02-14T07:34:29.864Z,99370.41
2023-02-14T07:36:58.282Z,99363.72
2023-02-14T07:39:26.738Z,99366.28
2023-02-14T07:41:55.137Z,99361.22
2023-02-14T07:44:24.507Z,99355.34
2023-02-14T07:46:53.077Z,99361.34
2023-02-14T07:49:22.297Z,99359.75
2023-02-14T07:51:52.170Z,99367.41
2023-02-14T07:54:21.294Z,99370.03
2023-02-14T07:56:50.595Z,99371.75
2023-02-14T07:59:18.994Z,99359.13
2023-02-14T08:01:47.624Z,99366.84
2023-02-14T08:04:16.288Z,99373.72
2023-02-14T08:06:44.954Z,99373.78
2023-02-14T08:09:24.603Z,99372.19
2023-02-14T08:12:11.695Z,99377.38
2023-02-14T08:14:40.143Z,99366.53
2023-02-14T08:17:10.068Z,99371.72
2023-02-14T08:19:38.584Z,99365.97
2023-02-14T08:22:08.138Z,99371.97
2023-02-14T08:24:37.959Z,99368.63
2023-02-14T08:27:06.474Z,99371.31
2023-02-14T08:29:34.878Z,99360.31
2023-02-14T08:32:03.472Z,99362.94
2023-02-14T08:34:32.057Z,99365.56
2023-02-14T08:37:00.572Z,99361.38
2023-02-14T08:39:29.050Z,99358.91
2023-02-14T08:41:58.862Z,99364.97
2023-02-14T08:44:27.572Z,99363.31
2023-02-14T08:46:56.151Z,99355.69
2023-02-14T08:49:24.713Z,99355.72
2023-02-14T08:51:54.580Z,99354.03
2023-02-14T08:54:23.074Z,99346.47
2023-02-14T08:56:51.612Z,99348.16
2023-02-14T08:59:21.520Z,99345.63
2023-02-14T09:01:50.005Z,99342.25
2023-02-14T09:04:18.546Z,99337.19
2023-02-14T09:06:47.011Z,99338.84
2023-02-14T09:09:17.376Z,99339.69
2023-02-14T09:11:46.131Z,99337.97
2023-02-14T09:14:16.297Z,99341.38
2023-02-14T09:16:46.086Z,99336.19
2023-02-14T09:19:14.806Z,99338.69
2023-02-14T09:21:43.293Z,99342.09
2023-02-14T09:24:11.920Z,99330.94
2023-02-14T09:26:42.154Z,99324.06
2023-02-14T09:29:13.237Z,99325.69
2023-02-14T09:31:41.777Z,99330.78
2023-02-14T09:34:11.774Z,99329.09
2023-02-14T09:36:57.741Z,99329.78
2023-02-14T09:39:26.272Z,99329.66
2023-02-14T09:42:09.542Z,99315.13
2023-02-14T09:44:40.966Z,99316.56
2023-02-14T09:47:18.018Z,99314.75
2023-02-14T09:49:48.699Z,99319.59
2023-02-14T09:52:21.232Z,99306.91
2023-02-14T09:54:55.279Z,99307.59
2023-02-14T09:57:28.988Z,99306.31
2023-02-14T10:00:03.914Z,99313.56
2023-02-14T10:02:44.663Z,99306.38
2023-02-14T10:05:20.482Z,99306.06
2023-02-14T10:07:58.538Z,99303.28
2023-02-14T10:10:32.608Z,99306.91
2023-02-14T10:13:07.619Z,99296.91
2023-02-14T10:15:41.022Z,99306.34
2023-02-14T10:18:13.500Z,99305.78
2023-02-14T10:20:47.223Z,99311.50
2023-02-14T10:23:28.379Z,99317.34
2023-02-14T10:26:01.653Z,99305.03
2023-02-14T10:28:36.015Z,99307.22
2023-02-14T10:31:17.617Z,99310.72
2023-02-14T10:33:53.242Z,99303.66
2023-02-14T10:36:36.106Z,99303.47
2023-02-14T10:39:17.852Z,99291.78
2023-02-14T10:41:51.746Z,99301.88
2023-02-14T10:44:39.508Z,99293.88
2023-02-14T10:47:21.100Z,99291.41
2023-02-14T10:49:57.455Z,99274.94
2023-02-14T10:52:34.372Z,99269.59
2023-02-14T10:55:20.270Z,99271.81
2023-02-14T10:57:58.794Z,99265.28
2023-02-14T11:00:32.270Z,99256.50
2023-02-14T11:03:05.465Z,99262.13
2023-02-14T11:05:35.818Z,99250.66
2023-02-14T11:08:15.200Z,99254.88
2023-02-14T11:10:43.824Z,99245.13
2023-02-14T11:13:33.476Z,99246.59
2023-02-14T11:16:05.252Z,99248.81
2023-02-14T11:18:35.986Z,99247.91
2023-02-14T11:21:08.254Z,99249.84
2023-02-14T11:23:40.860Z,99239.00
2023-02-14T11:26:21.774Z,99244.03
2023-02-14T11:28:54.979Z,99239.72
2023-02-14T11:31:29.387Z,99240.59
2023-02-14T11:33:58.988Z,99224.81
2023-02-14T11:36:28.225Z,99222.16
2023-02-14T11:39:06.304Z,99221.03
2023-02-14T11:41:48.659Z,99215.28
2023-02-14T11:44:22.639Z,99213.47
2023-02-14T11:46:53.900Z,99211.53
2023-02-14T11:49:32.024Z,99210.34
2023-02-14T11:52:10.293Z,99211.06
2023-02-14T11:54:41.764Z,99212.31
2023-02-14T11:57:15.682Z,99201.47
2023-02-14T11:59:47.941Z,99191.19
2023-02-14T12:02:26.120Z,99194.00
2023-02-14T12:04:59.232Z,99190.22
2023-02-14T12:07:30.964Z,99188.06
2023-02-14T12:10:25.585Z,99189.69
2023-02-14T12:12:59.080Z,99179.03
2023-02-14T12:15:37.735Z,99170.88
2023-02-14T12:18:44.590Z,99174.78
2023-02-14T12:21:27.089Z,99172.06
2023-02-14T12:24:04.342Z,99163.03
2023-02-14T12:26:36.023Z,99170.25
2023-02-14T12:29:13.820Z,99166.47
2023-02-14T12:31:43.154Z,99168.78
2023-02-14T12:34:14.014Z,99157.50
2023-02-14T12:37:03.126Z,99153.88
2023-02-14T12:39:38.939Z,99151.38
2023-02-14T12:42:26.748Z,99145.78
2023-02-14T12:45:06.107Z,99140.78
2023-02-14T12:47:45.262Z,99140.75
2023-02-14T12:50:28.896Z,99137.16
2023-02-14T12:53:20.409Z,99129.88
2023-02-14T12:55:57.000Z,99133.78
2023-02-14T12:58:34.116Z,99120.13
2023-02-14T13:01:21.727Z,99122.41
2023-02-14T13:04:20.878Z,99120.13
2023-02-14T13:06:52.697Z,99116.69
2023-02-14T13:09:35.067Z,99119.44
2023-02-14T13:12:14.175Z,99107.91
2023-02-14T13:14:56.575Z,99107.72
2023-02-14T13:17:34.829Z,99107.78
2023-02-14T13:20:24.808Z,99106.03
2023-02-14T13:22:56.378Z,99095.81
2023-02-14T13:25:31.638Z,99085.84
2023-02-14T13:28:01.459Z,99081.53
2023-02-14T13:30:32.064Z,99081.94
2023-02-14T13:33:07.252Z,99079.16
2023-02-14T13:35:36.213Z,99084.81
2023-02-14T13:38:09.440Z,99083.34
2023-02-14T13:40:38.621Z,99077.41
2023-02-14T13:43:07.059Z,99071.94
2023-02-14T13:45:56.511Z,99074.56
2023-02-14T13:48:28.557Z,99074.22
2023-02-14T13:50:59.968Z,99071.50
2023-02-14T13:53:38.500Z,99067.44
2023-02-14T13:56:34.798Z,99068.28
2023-02-14T13:59:06.863Z,99068.22
2023-02-14T14:01:39.646Z,99070.31
2023-02-14T14:04:36.920Z,99059.91
2023-02-14T14:07:27.101Z,99065.13
2023-02-14T14:10:04.194Z,99065.81
2023-02-14T14:12:40.902Z,99062.41
2023-02-14T14:15:18.390Z,99065.56
2023-02-14T14:18:03.362Z,99072.97
2023-02-14T14:20:43.173Z,99067.59
2023-02-14T14:23:32.016Z,99063.34
2023-02-14T14:26:02.253Z,99067.56
2023-02-14T14:28:33.189Z,99058.81
2023-02-14T14:31:02.055Z,99054.97
2023-02-14T14:33:32.468Z,99054.06
2023-02-14T14:36:07.668Z,99052.25
2023-02-14T14:38:47.459Z,99052.78
2023-02-14T14:41:16.080Z,99045.66
2023-02-14T14:43:44.881Z,99050.97
2023-02-14T14:46:15.806Z,99045.53
2023-02-14T14:48:46.842Z,99042.72
2023-02-14T14:51:24.822Z,99038.19
2023-02-14T14:53:56.962Z,99048.03
2023-02-14T14:56:27.836Z,99049.84
2023-02-14T14:58:56.465Z,99050.97
2023-02-14T15:01:34.284Z,99043.56
2023-02-14T15:04:12.337Z,99054.13
2023-02-14T15:06:43.447Z,99041.34
2023-02-14T15:09:14.252Z,99044.25
2023-02-14T15:12:01.804Z,99049.75
2023-02-14T15:14:33.648Z,99044.53
2023-02-14T15:17:04.378Z,99041.06
2023-02-14T15:19:38.516Z,99041.72
2023-02-14T15:22:19.402Z,99042.41
2023-02-14T15:24:48.380Z,99040.25
2023-02-14T15:27:19.132Z,99047.06
2023-02-14T15:29:59.193Z,99045.44
2023-02-14T15:32:31.430Z,99049.97
2023-02-14T15:35:03.061Z,99051.63
2023-02-14T15:37:34.217Z,99043.84
2023-02-14T15:40:03.235Z,99044.28
2023-02-14T15:42:34.315Z,99043.88
2023-02-14T15:45:16.584Z,99040.13
2023-02-14T15:47:47.825Z,99034.88
2023-02-14T15:50:18.964Z,99042.03
2023-02-14T15:52:49.452Z,99032.38
2023-02-14T15:55:20.992Z,99035.97
2023-02-14T15:57:55.968Z,99040.41
2023-02-14T16:00:25.589Z,99043.66
2023-02-14T16:02:57.383Z,99040.75
2023-02-14T16:05:27.906Z,99044.50
2023-02-14T16:08:03.486Z,99041.31
2023-02-14T16:10:33.481Z,99038.28
2023-02-14T16:13:03.472Z,99046.34
2023-02-14T16:15:34.081Z,99033.22
2023-02-14T16:18:07.894Z,99032.81
2023-02-14T16:20:46.889Z,99029.81
2023-02-14T16:23:23.189Z,99037.06
2023-02-14T16:25:52.234Z,99041.53
2023-02-14T16:28:22.308Z,99042.69
2023-02-14T16:30:56.258Z,99049.41
2023-02-14T16:33:28.269Z,99054.63
2023-02-14T16:36:09.212Z,99052.50
2023-02-14T16:38:43.819Z,99053.41
2023-02-14T16:41:18.489Z,99051.19
2023-02-14T16:43:47.748Z,99047.09
2023-02-14T16:46:18.569Z,99053.06
2023-02-14T16:48:47.118Z,99053.38
2023-02-14T16:51:16.588Z,99054.34
2023-02-14T16:53:46.717Z,99048.72
2023-02-14T16:56:17.932Z,99050.56
2023-02-14T16:58:46.868Z,99046.59
2023-02-14T17:01:15.435Z,99054.41
2023-02-14T17:03:44.579Z,99049.56
2023-02-14T17:06:15.922Z,99053.94
2023-02-14T17:08:47.800Z,99052.34
2023-02-14T17:11:16.794Z,99054.13
2023-02-14T17:13:46.941Z,99047.44
2023-02-14T17:16:15.795Z,99057.84
2023-02-14T17:18:46.196Z,99051.97
2023-02-14T17:21:15.889Z,99051.25
2023-02-14T17:23:45.778Z,99063.97
2023-02-14T17:26:14.316Z,99063.16
2023-02-14T17:28:42.720Z,99061.53
2023-02-14T17:31:11.820Z,99072.63
2023-02-14T17:33:40.251Z,99074.38
2023-02-14T17:36:11.999Z,99071.84
2023-02-14T17:38:43.396Z,99077.03
2023-02-14T17:41:15.197Z,99080.47
2023-02-14T17:43:43.941Z,99083.88
2023-02-14T17:46:14.247Z,99079.66
2023-02-14T17:48:45.325Z,99082.25
2023-02-14T17:51:15.132Z,99078.00
2023-02-14T17:53:44.078Z,99086.53
2023-02-14T17:56:17.684Z,99091.63
2023-02-14T17:58:47.749Z,99087.41
2023-02-14T18:01:17.992Z,99084.00
2023-02-14T18:03:47.271Z,99082.34
2023-02-14T18:06:16.585Z,99090.84
2023-02-14T18:08:49.307Z,99075.56
2023-02-14T18:11:20.999Z,99090.84
2023-02-14T18:13:50.548Z,99084.03
2023-02-14T18:16:20.309Z,99089.13
2023-02-14T18:18:49.275Z,99082.34
2023-02-14T18:21:20.878Z,99090.84
2023-02-14T18:23:49.471Z,99093.38
2023-02-14T18:26:19.646Z,99084.88
2023-02-14T18:28:48.922Z,99086.56
2023-02-14T18:31:18.592Z,99084.03
2023-02-14T18:33:48.776Z,99085.69
2023-02-14T18:36:19.865Z,99081.44
2023-02-14T18:38:52.657Z,99078.06
2023-02-14T18:41:23.554Z,99073.84
2023-02-14T18:43:53.082Z,99074.69
2023-02-14T18:46:23.473Z,99077.25
2023-02-14T18:48:52.461Z,99073.00
2023-02-14T18:51:26.157Z,99080.63
2023-02-14T18:53:56.273Z,99077.22
2023-02-14T18:56:28.684Z,99071.28
2023-02-14T18:58:59.187Z,99072.16
2023-02-14T19:01:30.485Z,99066.19
2023-02-14T19:04:01.236Z,99065.31
2023-02-14T19:06:31.922Z,99063.63
2023-02-14T19:09:01.345Z,99071.22
2023-02-14T19:11:32.775Z,99069.56
2023-02-14T19:14:02.683Z,99073.75
2023-02-14T19:16:34.024Z,99070.34
2023-02-14T19:19:03.059Z,99059.34
2023-02-14T19:21:33.574Z,99065.25
2023-02-14T19:24:03.928Z,99057.63
2023-02-14T19:26:34.985Z,99052.53
2023-02-14T19:29:06.855Z,99049.13
2023-02-14T19:31:36.486Z,99055.91
2023-02-14T19:34:06.228Z,99053.38
2023-02-14T19:36:36.309Z,99045.72
2023-02-14T19:39:07.972Z,99039.75
2023-02-14T19:41:37.809Z,99042.31
2023-02-14T19:44:08.380Z,99039.75
2023-02-14T19:46:38.193Z,99039.75
2023-02-14T19:49:06.894Z,99038.88
2023-02-14T19:51:36.948Z,99039.69
2023-02-14T19:54:09.701Z,99030.38
2023-02-14T19:56:41.545Z,99024.44
2023-02-14T19:59:11.057Z,99032.94
2023-02-14T20:01:41.967Z,99034.63
2023-02-14T20:04:14.599Z,99033.78
2023-02-14T20:06:44.823Z,99027.00
2023-02-14T20:09:13.648Z,99028.72
2023-02-14T20:11:50.016Z,99030.38
2023-02-14T20:14:20.287Z,99020.22
2023-02-14T20:16:49.523Z,99028.72
2023-02-14T20:19:20.403Z,99027.00
2023-02-14T20:21:50.943Z,99022.75
2023-02-14T20:24:21.328Z,99015.97
2023-02-14T20:26:51.715Z,99024.44
2023-02-14T20:29:22.599Z,99016.84
2023-02-14T20:31:52.961Z,99019.34
2023-02-14T20:34:22.086Z,99013.41
2023-02-14T20:36:53.272Z,99012.56
2023-02-14T20:39:24.412Z,99011.69
2023-02-14T20:41:54.428Z,99010.84
2023-02-14T20:44:23.588Z,98997.31
2023-02-14T20:46:53.635Z,98996.47
2023-02-14T20:49:23.977Z,98999.03
2023-02-14T20:51:52.851Z,99005.81
2023-02-14T20:54:22.893Z,98995.63
2023-02-14T20:56:51.625Z,98998.19
2023-02-14T20:59:26.737Z,98991.34
2023-02-14T21:01:55.876Z,99004.91
2023-02-14T21:04:25.501Z,98991.31
2023-02-14T21:06:54.446Z,98987.09
2023-02-14T21:09:23.036Z,98984.56
2023-02-14T21:11:53.746Z,98979.50
2023-02-14T21:14:23.674Z,98985.41
2023-02-14T21:16:52.294Z,98972.69
2023-02-14T21:19:20.935Z,98969.28
2023-02-14T21:21:49.334Z,98969.31
2023-02-14T21:24:18.443Z,98958.28
2023-02-14T21:26:46.979Z,98962.50
2023-02-14T21:29:15.483Z,98965.91
2023-02-14T21:31:45.400Z,98964.19
2023-02-14T21:34:16.116Z,98967.63
2023-02-14T21:36:44.844Z,98961.72
2023-02-14T21:39:13.606Z,98954.09
2023-02-14T21:41:42.288Z,98957.47
2023-02-14T21:44:31.215Z,98947.31
2023-02-14T21:47:00.927Z,98940.59
2023-02-14T21:49:46.894Z,98943.09
2023-02-14T21:52:15.333Z,98937.16
2023-02-14T21:54:43.979Z,98934.63
2023-02-14T21:57:12.414Z,98930.38
2023-02-14T21:59:41.676Z,98927.84
2023-02-14T22:02:13.126Z,98921.94
2023-02-14T22:04:43.133Z,98918.53
2023-02-14T22:07:11.595Z,98921.06
2023-02-14T22:09:40.118Z,98917.66
2023-02-14T22:12:09.030Z,98916.88
2023-02-14T22:14:37.573Z,98918.53
2023-02-14T22:17:06.038Z,98913.47
2023-02-14T22:19:36.728Z,98917.69
2023-02-14T22:22:05.477Z,98915.97
2023-02-14T22:24:33.900Z,98922.72
2023-02-14T22:27:02.378Z,98910.91
2023-02-14T22:29:30.907Z,98921.91
2023-02-14T22:31:59.484Z,98926.09
2023-02-14T22:34:28.069Z,98924.44
2023-02-14T22:36:57.844Z,98929.50
2023-02-14T22:39:26.299Z,98923.59
2023-02-14T22:41:54.820Z,98929.50
2023-02-14T22:44:23.323Z,98926.94
2023-02-14T22:46:51.867Z,98923.50
2023-02-14T22:49:20.304Z,98913.38
2023-02-14T22:51:48.794Z,98907.44
2023-02-14T22:54:18.775Z,98912.47
2023-02-14T22:56:49.032Z,98909.06
2023-02-14T22:59:19.462Z,98919.19
2023-02-14T23:01:48.637Z,98918.31
2023-02-14T23:04:18.790Z,98918.31
2023-02-14T23:06:47.211Z,98917.47
2023-02-14T23:09:17.687Z,98916.59
2023-02-14T23:11:47.387Z,98906.41
2023-02-14T23:14:35.255Z,98911.47
2023-02-14T23:17:21.277Z,98912.31
2023-02-14T23:20:07.220Z,98908.09
2023-02-14T23:22:38.185Z,98906.34
2023-02-14T23:25:10.862Z,98907.16
2023-02-14T23:27:40.920Z,98902.94
2023-02-14T23:30:14.181Z,98907.22
2023-02-14T23:32:43.043Z,98898.78
2023-02-14T23:35:11.614Z,98900.41
2023-02-14T23:37:40.228Z,98908.88
2023-02-14T23:40:10.989Z,98899.56
2023-02-14T23:42:39.505Z,98909.69
2023-02-14T23:45:26.428Z,98902.84
2023-02-14T23:47:54.964Z,98898.63
2023-02-14T23:50:23.384Z,98892.72
2023-02-14T23:52:51.849Z,98896.91
2023-02-14T23:55:21.711Z,98900.22
2023-02-14T23:57:50.167Z,98890.09
